sensor_id;sensor_type;location;lat;lon;timestamp;pressure;altitude;pressure_sealevel;temperature;humidity
75455;BME280;64035;48.358;2.122;2022-12-26T00:00:08;100679.13;;;10.96;85.84
75455;BME280;64035;48.358;2.122;2022-12-26T00:01:49;100676.56;;;10.96;85.81
75455;BME280;64035;48.358;2.122;2022-12-26T00:03:29;100686.03;;;10.97;85.92
75455;BME280;64035;48.358;2.122;2022-12-26T00:05:08;100692.72;;;10.95;86.12
75455;BME280;64035;48.358;2.122;2022-12-26T00:06:46;100693.69;;;10.97;86.04
75455;BME280;64035;48.358;2.122;2022-12-26T00:08:27;100697.06;;;10.96;85.58
75455;BME280;64035;48.358;2.122;2022-12-26T00:10:06;100696.94;;;10.93;86.05
75455;BME280;64035;48.358;2.122;2022-12-26T00:11:44;100696.13;;;10.94;86.01
75455;BME280;64035;48.358;2.122;2022-12-26T00:13:22;100695.97;;;10.91;86.08
75455;BME280;64035;48.358;2.122;2022-12-26T00:15:00;100695.28;;;10.95;86.33
75455;BME280;64035;48.358;2.122;2022-12-26T00:16:39;100700.41;;;10.95;85.68
75455;BME280;64035;48.358;2.122;2022-12-26T00:18:18;100693.41;;;10.91;86.15
75455;BME280;64035;48.358;2.122;2022-12-26T00:19:56;100689.94;;;10.90;86.22
75455;BME280;64035;48.358;2.122;2022-12-26T00:21:35;100689.16;;;10.91;86.27
75455;BME280;64035;48.358;2.122;2022-12-26T00:23:13;100681.47;;;10.91;86.39
75455;BME280;64035;48.358;2.122;2022-12-26T00:24:51;100685.78;;;10.92;86.41
75455;BME280;64035;48.358;2.122;2022-12-26T00:26:30;100672.19;;;10.93;86.46
75455;BME280;64035;48.358;2.122;2022-12-26T00:28:08;100673.13;;;10.95;86.32
75455;BME280;64035;48.358;2.122;2022-12-26T00:29:47;100674.00;;;10.96;86.31
75455;BME280;64035;48.358;2.122;2022-12-26T00:31:27;100678.25;;;10.95;86.56
75455;BME280;64035;48.358;2.122;2022-12-26T00:33:05;100682.75;;;11.00;86.60
75455;BME280;64035;48.358;2.122;2022-12-26T00:34:43;100685.31;;;11.00;86.49
75455;BME280;64035;48.358;2.122;2022-12-26T00:36:27;100681.06;;;11.00;86.39
75455;BME280;64035;48.358;2.122;2022-12-26T00:38:06;100681.06;;;11.00;86.42
75455;BME280;64035;48.358;2.122;2022-12-26T00:39:44;100681.94;;;11.01;86.50
75455;BME280;64035;48.358;2.122;2022-12-26T00:41:23;100687.16;;;11.02;86.55
75455;BME280;64035;48.358;2.122;2022-12-26T00:43:01;100693.94;;;11.02;86.55
75455;BME280;64035;48.358;2.122;2022-12-26T00:44:39;100694.88;;;11.04;86.57
75455;BME280;64035;48.358;2.122;2022-12-26T00:46:17;100696.56;;;11.03;86.79
75455;BME280;64035;48.358;2.122;2022-12-26T00:47:55;100696.72;;;11.06;86.58
75455;BME280;64035;48.358;2.122;2022-12-26T00:49:34;100693.38;;;11.07;86.65
75455;BME280;64035;48.358;2.122;2022-12-26T00:51:12;100694.16;;;11.06;86.92
75455;BME280;64035;48.358;2.122;2022-12-26T00:52:50;100687.38;;;11.07;86.98
75455;BME280;64035;48.358;2.122;2022-12-26T00:54:29;100699.28;;;11.06;87.10
75455;BME280;64035;48.358;2.122;2022-12-26T00:56:07;100700.19;;;11.07;86.78
75455;BME280;64035;48.358;2.122;2022-12-26T00:57:45;100702.81;;;11.08;86.99
75455;BME280;64035;48.358;2.122;2022-12-26T00:59:23;100703.75;;;11.10;87.01
75455;BME280;64035;48.358;2.122;2022-12-26T01:02:53;100694.38;;;11.11;86.85
75455;BME280;64035;48.358;2.122;2022-12-26T01:04:31;100702.25;;;11.14;86.90
75455;BME280;64035;48.358;2.122;2022-12-26T01:06:09;100710.81;;;11.14;86.80
75455;BME280;64035;48.358;2.122;2022-12-26T01:07:47;100711.59;;;11.13;86.95
75455;BME280;64035;48.358;2.122;2022-12-26T01:09:26;100714.16;;;11.13;87.03
75455;BME280;64035;48.358;2.122;2022-12-26T01:11:05;100717.69;;;11.15;87.07
75455;BME280;64035;48.358;2.122;2022-12-26T01:12:44;100719.47;;;11.16;86.86
75455;BME280;64035;48.358;2.122;2022-12-26T01:14:22;100716.91;;;11.16;86.74
75455;BME280;64035;48.358;2.122;2022-12-26T01:16:00;100724.63;;;11.18;86.94
75455;BME280;64035;48.358;2.122;2022-12-26T01:17:38;100725.59;;;11.20;87.11
75455;BME280;64035;48.358;2.122;2022-12-26T01:19:16;100724.81;;;11.21;86.91
75455;BME280;64035;48.358;2.122;2022-12-26T01:21:04;100731.59;;;11.20;87.16
75455;BME280;64035;48.358;2.122;2022-12-26T01:22:43;100734.34;;;11.23;86.90
75455;BME280;64035;48.358;2.122;2022-12-26T01:24:21;100730.81;;;11.21;87.14
75455;BME280;64035;48.358;2.122;2022-12-26T01:25:59;100724.88;;;11.22;86.99
75455;BME280;64035;48.358;2.122;2022-12-26T01:27:37;100724.88;;;11.22;87.06
75455;BME280;64035;48.358;2.122;2022-12-26T01:29:16;100724.81;;;11.21;86.96
75455;BME280;64035;48.358;2.122;2022-12-26T01:30:53;100731.78;;;11.23;86.98
75455;BME280;64035;48.358;2.122;2022-12-26T01:32:32;100725.75;;;11.23;86.88
75455;BME280;64035;48.358;2.122;2022-12-26T01:34:10;100730.06;;;11.24;87.26
75455;BME280;64035;48.358;2.122;2022-12-26T01:35:52;100730.06;;;11.24;87.21
75455;BME280;64035;48.358;2.122;2022-12-26T01:37:30;100731.03;;;11.26;86.97
75455;BME280;64035;48.358;2.122;2022-12-26T01:39:08;100727.56;;;11.25;86.92
75455;BME280;64035;48.358;2.122;2022-12-26T01:40:48;100732.78;;;11.27;86.89
75455;BME280;64035;48.358;2.122;2022-12-26T01:42:36;100730.16;;;11.25;87.05
75455;BME280;64035;48.358;2.122;2022-12-26T01:46:36;100743.13;;;11.28;87.19
75455;BME280;64035;48.358;2.122;2022-12-26T01:49:54;100754.16;;;11.27;87.51
75455;BME280;64035;48.358;2.122;2022-12-26T01:51:35;100751.59;;;11.27;87.37
75455;BME280;64035;48.358;2.122;2022-12-26T01:53:45;100751.69;;;11.29;87.42
75455;BME280;64035;48.358;2.122;2022-12-26T01:55:22;100758.50;;;11.28;87.24
75455;BME280;64035;48.358;2.122;2022-12-26T01:57:03;100757.63;;;11.28;87.49
75455;BME280;64035;48.358;2.122;2022-12-26T01:58:48;100749.94;;;11.28;87.34
75455;BME280;64035;48.358;2.122;2022-12-26T02:00:27;100751.78;;;11.30;87.20
75455;BME280;64035;48.358;2.122;2022-12-26T02:02:06;100757.75;;;11.31;87.19
75455;BME280;64035;48.358;2.122;2022-12-26T02:03:45;100761.19;;;11.31;87.38
75455;BME280;64035;48.358;2.122;2022-12-26T02:05:43;100754.38;;;11.32;87.39
75455;BME280;64035;48.358;2.122;2022-12-26T02:07:23;100758.63;;;11.31;87.24
75455;BME280;64035;48.358;2.122;2022-12-26T02:09:02;100754.38;;;11.32;87.27
75455;BME280;64035;48.358;2.122;2022-12-26T02:12:26;100738.13;;;11.31;87.14
75455;BME280;64035;48.358;2.122;2022-12-26T02:14:06;100746.69;;;11.32;87.56
75455;BME280;64035;48.358;2.122;2022-12-26T02:15:46;100736.53;;;11.33;87.44
75455;BME280;64035;48.358;2.122;2022-12-26T02:17:25;100720.19;;;11.31;87.66
75455;BME280;64035;48.358;2.122;2022-12-26T02:19:05;100722.72;;;11.30;87.84
75455;BME280;64035;48.358;2.122;2022-12-26T02:28:56;100731.41;;;11.33;87.47
75455;BME280;64035;48.358;2.122;2022-12-26T02:35:30;100743.41;;;11.34;87.45
75455;BME280;64035;48.358;2.122;2022-12-26T02:42:58;100738.28;;;11.34;87.55
75455;BME280;64035;48.358;2.122;2022-12-26T02:46:46;100740.78;;;11.33;87.43
75455;BME280;64035;48.358;2.122;2022-12-26T02:48:51;100740.84;;;11.34;87.66
75455;BME280;64035;48.358;2.122;2022-12-26T02:50:42;100733.97;;;11.33;87.65
75455;BME280;64035;48.358;2.122;2022-12-26T02:55:15;100720.28;;;11.33;87.74
75455;BME280;64035;48.358;2.122;2022-12-26T02:57:24;100722.03;;;11.34;87.40
75455;BME280;64035;48.358;2.122;2022-12-26T03:02:34;100734.06;;;11.35;87.58
75455;BME280;64035;48.358;2.122;2022-12-26T03:04:35;100730.53;;;11.33;87.56
75455;BME280;64035;48.358;2.122;2022-12-26T03:06:35;100729.66;;;11.32;87.42
75455;BME280;64035;48.358;2.122;2022-12-26T03:08:42;100730.53;;;11.33;87.60
75455;BME280;64035;48.358;2.122;2022-12-26T03:10:40;100722.84;;;11.33;87.45
75455;BME280;64035;48.358;2.122;2022-12-26T03:12:51;100717.78;;;11.34;87.56
75455;BME280;64035;48.358;2.122;2022-12-26T03:15:01;100735.66;;;11.33;87.46
75455;BME280;64035;48.358;2.122;2022-12-26T03:16:42;100742.47;;;11.32;87.86
75455;BME280;64035;48.358;2.122;2022-12-26T03:18:48;100749.25;;;11.32;87.60
75455;BME280;64035;48.358;2.122;2022-12-26T03:20:35;100754.38;;;11.32;87.67
75455;BME280;64035;48.358;2.122;2022-12-26T03:22:13;100753.50;;;11.31;87.56
75455;BME280;64035;48.358;2.122;2022-12-26T03:24:10;100750.94;;;11.31;87.73
75455;BME280;64035;48.358;2.122;2022-12-26T03:25:58;100752.63;;;11.31;88.13
75455;BME280;64035;48.358;2.122;2022-12-26T03:27:57;100744.88;;;11.29;87.69
75455;BME280;64035;48.358;2.122;2022-12-26T03:29:35;100740.66;;;11.30;87.51
75455;BME280;64035;48.358;2.122;2022-12-26T03:31:32;100754.34;;;11.30;87.44
75455;BME280;64035;48.358;2.122;2022-12-26T03:33:10;100753.47;;;11.30;87.70
75455;BME280;64035;48.358;2.122;2022-12-26T03:35:11;100755.19;;;11.31;87.70
75455;BME280;64035;48.358;2.122;2022-12-26T03:48:09;100768.00;;;11.31;87.65
75455;BME280;64035;48.358;2.122;2022-12-26T03:50:26;100756.03;;;11.30;87.92
75455;BME280;64035;48.358;2.122;2022-12-26T03:52:32;100763.72;;;11.30;87.85
75455;BME280;64035;48.358;2.122;2022-12-26T03:54:33;100762.81;;;11.29;87.94
75455;BME280;64035;48.358;2.122;2022-12-26T03:56:40;100773.13;;;11.31;87.84
75455;BME280;64035;48.358;2.122;2022-12-26T03:58:47;100771.44;;;11.31;87.84
75455;BME280;64035;48.358;2.122;2022-12-26T04:00:47;100771.44;;;11.31;87.70
75455;BME280;64035;48.358;2.122;2022-12-26T04:02:47;100764.59;;;11.30;88.26
75455;BME280;64035;48.358;2.122;2022-12-26T04:04:45;100763.75;;;11.31;88.03
75455;BME280;64035;48.358;2.122;2022-12-26T04:06:54;100778.25;;;11.31;87.95
75455;BME280;64035;48.358;2.122;2022-12-26T04:09:00;100786.81;;;11.31;87.85
75455;BME280;64035;48.358;2.122;2022-12-26T04:11:00;100778.34;;;11.32;88.12
75455;BME280;64035;48.358;2.122;2022-12-26T04:12:59;100774.00;;;11.31;87.77
75455;BME280;64035;48.358;2.122;2022-12-26T04:15:02;100774.00;;;11.31;87.86
75455;BME280;64035;48.358;2.122;2022-12-26T04:19:35;100798.03;;;11.33;87.74
75455;BME280;64035;48.358;2.122;2022-12-26T04:21:26;100797.25;;;11.34;87.66
75455;BME280;64035;48.358;2.122;2022-12-26T04:23:41;100797.16;;;11.33;87.83
75455;BME280;64035;48.358;2.122;2022-12-26T04:25:51;100790.34;;;11.33;87.86
75455;BME280;64035;48.358;2.122;2022-12-26T04:27:53;100799.81;;;11.34;87.60
75455;BME280;64035;48.358;2.122;2022-12-26T04:29:52;100791.22;;;11.34;87.97
75455;BME280;64035;48.358;2.122;2022-12-26T04:32:12;100779.22;;;11.33;87.69
75455;BME280;64035;48.358;2.122;2022-12-26T04:34:17;100769.75;;;11.32;87.72
75455;BME280;64035;48.358;2.122;2022-12-26T04:36:17;100784.34;;;11.33;87.71
75455;BME280;64035;48.358;2.122;2022-12-26T04:38:23;100780.91;;;11.32;87.63
75455;BME280;64035;48.358;2.122;2022-12-26T04:40:26;100793.72;;;11.32;87.36
75455;BME280;64035;48.358;2.122;2022-12-26T04:42:26;100797.97;;;11.32;87.73
75455;BME280;64035;48.358;2.122;2022-12-26T04:44:24;100799.63;;;11.31;87.72
75455;BME280;64035;48.358;2.122;2022-12-26T04:46:03;100791.91;;;11.30;87.91
75455;BME280;64035;48.358;2.122;2022-12-26T04:47:42;100803.81;;;11.29;87.80
75455;BME280;64035;48.358;2.122;2022-12-26T04:49:43;100797.03;;;11.30;87.80
75455;BME280;64035;48.358;2.122;2022-12-26T04:51:40;100804.63;;;11.28;87.86
75455;BME280;64035;48.358;2.122;2022-12-26T04:53:18;100789.25;;;11.28;87.93
75455;BME280;64035;48.358;2.122;2022-12-26T04:54:57;100785.81;;;11.28;87.54
75455;BME280;64035;48.358;2.122;2022-12-26T04:56:35;100790.94;;;11.28;87.91
75455;BME280;64035;48.358;2.122;2022-12-26T04:58:13;100791.00;;;11.29;87.71
75455;BME280;64035;48.358;2.122;2022-12-26T04:59:51;100817.53;;;11.30;87.94
75455;BME280;64035;48.358;2.122;2022-12-26T05:01:29;100811.50;;;11.29;87.56
75455;BME280;64035;48.358;2.122;2022-12-26T05:03:26;100832.00;;;11.29;87.51
75455;BME280;64035;48.358;2.122;2022-12-26T05:05:23;100839.69;;;11.29;87.83
75455;BME280;64035;48.358;2.122;2022-12-26T05:07:23;100831.22;;;11.30;87.80
75455;BME280;64035;48.358;2.122;2022-12-26T05:09:21;100832.91;;;11.30;87.55
75455;BME280;64035;48.358;2.122;2022-12-26T05:11:11;100836.16;;;11.27;87.60
75455;BME280;64035;48.358;2.122;2022-12-26T05:12:51;100837.84;;;11.27;87.66
75455;BME280;64035;48.358;2.122;2022-12-26T05:14:30;100836.16;;;11.27;87.37
75455;BME280;64035;48.358;2.122;2022-12-26T05:16:08;100830.97;;;11.26;87.65
75455;BME280;64035;48.358;2.122;2022-12-26T05:18:05;100838.56;;;11.24;87.69
75455;BME280;64035;48.358;2.122;2022-12-26T05:20:02;100842.81;;;11.24;87.43
75455;BME280;64035;48.358;2.122;2022-12-26T05:22:00;100836.84;;;11.23;87.77
75455;BME280;64035;48.358;2.122;2022-12-26T05:23:58;100829.94;;;11.22;87.76
75455;BME280;64035;48.358;2.122;2022-12-26T05:25:55;100839.41;;;11.23;87.84
75455;BME280;64035;48.358;2.122;2022-12-26T05:27:52;100843.69;;;11.24;87.90
75455;BME280;64035;48.358;2.122;2022-12-26T05:29:49;100839.31;;;11.22;87.69
75455;BME280;64035;48.358;2.122;2022-12-26T05:31:27;100846.13;;;11.21;87.76
75455;BME280;64035;48.358;2.122;2022-12-26T05:33:06;100860.69;;;11.22;87.52
75455;BME280;64035;48.358;2.122;2022-12-26T05:35:03;100866.53;;;11.20;87.68
75455;BME280;64035;48.358;2.122;2022-12-26T05:36:47;100861.41;;;11.20;87.62
75455;BME280;64035;48.358;2.122;2022-12-26T05:38:26;100852.13;;;11.22;87.77
75455;BME280;64035;48.358;2.122;2022-12-26T05:40:05;100854.50;;;11.19;87.74
75455;BME280;64035;48.358;2.122;2022-12-26T05:41:43;100833.22;;;11.20;87.56
75455;BME280;64035;48.358;2.122;2022-12-26T05:43:21;100835.78;;;11.20;87.56
75455;BME280;64035;48.358;2.122;2022-12-26T05:44:59;100826.31;;;11.19;87.31
75455;BME280;64035;48.358;2.122;2022-12-26T05:46:38;100845.84;;;11.17;87.37
75455;BME280;64035;48.358;2.122;2022-12-26T05:48:16;100849.25;;;11.16;87.41
75455;BME280;64035;48.358;2.122;2022-12-26T05:49:54;100855.06;;;11.13;87.35
75455;BME280;64035;48.358;2.122;2022-12-26T05:51:32;100861.88;;;11.13;87.52
75455;BME280;64035;48.358;2.122;2022-12-26T05:53:10;100857.63;;;11.13;87.62
75455;BME280;64035;48.358;2.122;2022-12-26T05:54:48;100858.44;;;11.12;87.66
75455;BME280;64035;48.358;2.122;2022-12-26T05:56:26;100855.88;;;11.12;87.69
75455;BME280;64035;48.358;2.122;2022-12-26T05:58:04;100862.75;;;11.13;87.60
75455;BME280;64035;48.358;2.122;2022-12-26T05:59:42;100855.00;;;11.12;87.50
75455;BME280;64035;48.358;2.122;2022-12-26T06:01:20;100864.34;;;11.11;87.38
75455;BME280;64035;48.358;2.122;2022-12-26T06:02:59;100868.59;;;11.11;87.54
75455;BME280;64035;48.358;2.122;2022-12-26T06:04:37;100863.31;;;11.08;87.53
75455;BME280;64035;48.358;2.122;2022-12-26T06:06:16;100884.72;;;11.08;87.31
75455;BME280;64035;48.358;2.122;2022-12-26T06:07:54;100881.19;;;11.06;87.24
75455;BME280;64035;48.358;2.122;2022-12-26T06:09:32;100875.16;;;11.06;87.29
75455;BME280;64035;48.358;2.122;2022-12-26T06:11:12;100881.09;;;11.05;87.35
75455;BME280;64035;48.358;2.122;2022-12-26T06:12:50;100882.69;;;11.03;87.54
75455;BME280;64035;48.358;2.122;2022-12-26T06:14:28;100879.31;;;11.04;87.38
75455;BME280;64035;48.358;2.122;2022-12-26T06:16:12;100885.31;;;11.04;87.27
75455;BME280;64035;48.358;2.122;2022-12-26T06:17:50;100886.06;;;11.02;87.11
75455;BME280;64035;48.358;2.122;2022-12-26T06:19:29;100883.41;;;11.00;87.11
75455;BME280;64035;48.358;2.122;2022-12-26T06:21:09;100893.66;;;11.00;87.23
75455;BME280;64035;48.358;2.122;2022-12-26T06:22:48;100895.25;;;10.98;87.26
75455;BME280;64035;48.358;2.122;2022-12-26T06:24:26;100898.50;;;10.95;87.36
75455;BME280;64035;48.358;2.122;2022-12-26T06:26:05;100894.13;;;10.93;87.46
75455;BME280;64035;48.358;2.122;2022-12-26T06:27:43;100880.91;;;10.85;87.69
75455;BME280;64035;48.358;2.122;2022-12-26T06:29:21;100888.03;;;10.91;87.25
75455;BME280;64035;48.358;2.122;2022-12-26T06:31:13;100879.56;;;10.92;87.30
75455;BME280;64035;48.358;2.122;2022-12-26T06:32:52;100884.59;;;10.90;87.35
75455;BME280;64035;48.358;2.122;2022-12-26T06:34:30;100882.03;;;10.90;87.06
75455;BME280;64035;48.358;2.122;2022-12-26T06:36:13;100885.47;;;10.91;87.28
75455;BME280;64035;48.358;2.122;2022-12-26T06:37:52;100882.91;;;10.91;86.94
75455;BME280;64035;48.358;2.122;2022-12-26T06:39:30;100882.03;;;10.90;87.13
75455;BME280;64035;48.358;2.122;2022-12-26T06:41:11;100889.81;;;10.92;86.96
75455;BME280;64035;48.358;2.122;2022-12-26T06:42:50;100890.59;;;10.91;86.95
75455;BME280;64035;48.358;2.122;2022-12-26T06:44:28;100886.28;;;10.90;87.03
75455;BME280;64035;48.358;2.122;2022-12-26T06:46:08;100895.63;;;10.89;86.86
75455;BME280;64035;48.358;2.122;2022-12-26T06:47:47;100894.69;;;10.87;87.01
75455;BME280;64035;48.358;2.122;2022-12-26T06:49:26;100899.88;;;10.89;86.92
75455;BME280;64035;48.358;2.122;2022-12-26T06:51:16;100905.00;;;10.89;86.95
75455;BME280;64035;48.358;2.122;2022-12-26T06:52:54;100898.03;;;10.86;86.70
75455;BME280;64035;48.358;2.122;2022-12-26T06:54:33;100911.56;;;10.84;87.00
75455;BME280;64035;48.358;2.122;2022-12-26T06:56:14;100903.06;;;10.85;86.86
75455;BME280;64035;48.358;2.122;2022-12-26T06:57:52;100905.53;;;10.83;86.73
75455;BME280;64035;48.358;2.122;2022-12-26T06:59:31;100908.09;;;10.83;87.02
75455;BME280;64035;48.358;2.122;2022-12-26T07:01:17;100906.25;;;10.81;86.67
75455;BME280;64035;48.358;2.122;2022-12-26T07:02:55;100913.94;;;10.81;86.77
75455;BME280;64035;48.358;2.122;2022-12-26T07:04:33;100914.66;;;10.78;86.64
75455;BME280;64035;48.358;2.122;2022-12-26T07:07:57;100933.94;;;10.72;86.66
75455;BME280;64035;48.358;2.122;2022-12-26T07:09:35;100939.06;;;10.72;86.59
75455;BME280;64035;48.358;2.122;2022-12-26T07:11:18;100940.66;;;10.70;86.57
75455;BME280;64035;48.358;2.122;2022-12-26T07:12:58;100949.13;;;10.69;86.38
75455;BME280;64035;48.358;2.122;2022-12-26T07:14:36;100950.69;;;10.67;86.49
75455;BME280;64035;48.358;2.122;2022-12-26T07:16:14;100955.81;;;10.67;86.56
75455;BME280;64035;48.358;2.122;2022-12-26T07:17:54;100962.63;;;10.66;86.53
75455;BME280;64035;48.358;2.122;2022-12-26T07:19:32;100968.38;;;10.62;86.45
75455;BME280;64035;48.358;2.122;2022-12-26T07:21:13;100960.69;;;10.62;86.18
75455;BME280;64035;48.358;2.122;2022-12-26T07:22:51;100963.06;;;10.59;86.12
75455;BME280;64035;48.358;2.122;2022-12-26T07:24:30;100965.63;;;10.59;86.39
75455;BME280;64035;48.358;2.122;2022-12-26T07:26:08;100968.13;;;10.57;86.24
75455;BME280;64035;48.358;2.122;2022-12-26T07:27:47;100963.63;;;10.53;86.44
75455;BME280;64035;48.358;2.122;2022-12-26T07:29:25;100957.78;;;10.56;86.16
75455;BME280;64035;48.358;2.122;2022-12-26T07:31:04;100960.16;;;10.53;86.35
75455;BME280;64035;48.358;2.122;2022-12-26T07:32:42;100964.50;;;10.54;86.33
75455;BME280;64035;48.358;2.122;2022-12-26T07:34:20;100981.44;;;10.52;86.22
75455;BME280;64035;48.358;2.122;2022-12-26T07:36:04;100971.13;;;10.50;86.21
75455;BME280;64035;48.358;2.122;2022-12-26T07:37:42;100971.84;;;10.48;86.00
75455;BME280;64035;48.358;2.122;2022-12-26T07:39:20;100967.41;;;10.45;86.47
75455;BME280;64035;48.358;2.122;2022-12-26T07:40:59;100968.25;;;10.44;86.29
75455;BME280;64035;48.358;2.122;2022-12-26T07:42:57;100965.69;;;10.44;85.92
75455;BME280;64035;48.358;2.122;2022-12-26T07:44:34;100968.84;;;10.40;86.19
75455;BME280;64035;48.358;2.122;2022-12-26T07:46:12;100975.63;;;10.40;86.11
75455;BME280;64035;48.358;2.122;2022-12-26T07:47:54;100981.53;;;10.39;86.12
75455;BME280;64035;48.358;2.122;2022-12-26T07:49:33;100986.66;;;10.39;86.09
75455;BME280;64035;48.358;2.122;2022-12-26T07:51:11;100991.88;;;10.40;86.08
75455;BME280;64035;48.358;2.122;2022-12-26T07:52:49;100993.53;;;10.40;85.82
75455;BME280;64035;48.358;2.122;2022-12-26T07:54:27;100994.28;;;10.37;85.82
75455;BME280;64035;48.358;2.122;2022-12-26T07:56:07;101004.50;;;10.37;85.75
75455;BME280;64035;48.358;2.122;2022-12-26T07:57:49;101002.75;;;10.36;85.80
75455;BME280;64035;48.358;2.122;2022-12-26T07:59:28;101007.84;;;10.36;85.73
75455;BME280;64035;48.358;2.122;2022-12-26T08:01:06;101001.84;;;10.36;85.65
75455;BME280;64035;48.358;2.122;2022-12-26T08:02:49;101019.66;;;10.34;85.97
75455;BME280;64035;48.358;2.122;2022-12-26T08:04:27;101014.56;;;10.34;85.56
75455;BME280;64035;48.358;2.122;2022-12-26T08:06:05;101010.13;;;10.32;85.68
75455;BME280;64035;48.358;2.122;2022-12-26T08:07:46;100998.13;;;10.31;85.59
75455;BME280;64035;48.358;2.122;2022-12-26T08:09:24;101000.63;;;10.29;85.43
75455;BME280;64035;48.358;2.122;2022-12-26T08:11:07;101003.19;;;10.29;85.51
75455;BME280;64035;48.358;2.122;2022-12-26T08:12:45;101001.31;;;10.27;85.49
75455;BME280;64035;48.358;2.122;2022-12-26T08:14:23;101005.53;;;10.26;85.51
75455;BME280;64035;48.358;2.122;2022-12-26T08:16:07;101010.47;;;10.23;85.85
75455;BME280;64035;48.358;2.122;2022-12-26T08:17:45;100996.63;;;10.20;85.97
75455;BME280;64035;48.358;2.122;2022-12-26T08:19:23;101005.88;;;10.17;86.08
75455;BME280;64035;48.358;2.122;2022-12-26T08:21:01;101009.31;;;10.18;85.73
75455;BME280;64035;48.358;2.122;2022-12-26T08:22:40;101011.88;;;10.18;85.74
75455;BME280;64035;48.358;2.122;2022-12-26T08:24:18;101011.88;;;10.18;85.45
75455;BME280;64035;48.358;2.122;2022-12-26T08:25:56;101018.47;;;10.14;86.05
75455;BME280;64035;48.358;2.122;2022-12-26T08:27:34;101010.03;;;10.15;85.86
75455;BME280;64035;48.358;2.122;2022-12-26T08:29:13;101017.00;;;10.18;85.81
75455;BME280;64035;48.358;2.122;2022-12-26T08:30:51;101025.38;;;10.15;85.84
75455;BME280;64035;48.358;2.122;2022-12-26T08:32:29;101021.03;;;10.14;85.92
75455;BME280;64035;48.358;2.122;2022-12-26T08:34:07;101015.03;;;10.14;86.09
75455;BME280;64035;48.358;2.122;2022-12-26T08:35:46;101030.38;;;10.14;86.03
75455;BME280;64035;48.358;2.122;2022-12-26T08:37:24;101036.28;;;10.13;86.43
75455;BME280;64035;48.358;2.122;2022-12-26T08:39:02;101043.06;;;10.12;86.37
75455;BME280;64035;48.358;2.122;2022-12-26T08:40:42;101048.28;;;10.14;86.39
75455;BME280;64035;48.358;2.122;2022-12-26T08:42:20;101048.19;;;10.12;86.09
75455;BME280;64035;48.358;2.122;2022-12-26T08:43:59;101046.63;;;10.14;86.41
75455;BME280;64035;48.358;2.122;2022-12-26T08:45:36;101059.41;;;10.14;86.39
75455;BME280;64035;48.358;2.122;2022-12-26T08:47:14;101054.34;;;10.16;86.27
75455;BME280;64035;48.358;2.122;2022-12-26T08:48:52;101062.25;;;10.19;86.27
75455;BME280;64035;48.358;2.122;2022-12-26T08:50:30;101064.03;;;10.20;86.58
75455;BME280;64035;48.358;2.122;2022-12-26T08:52:08;101059.00;;;10.22;86.71
75455;BME280;64035;48.358;2.122;2022-12-26T08:53:48;101060.84;;;10.24;86.76
75455;BME280;64035;48.358;2.122;2022-12-26T08:55:27;101066.84;;;10.25;86.95
75455;BME280;64035;48.358;2.122;2022-12-26T08:57:05;101070.50;;;10.28;86.69
75455;BME280;64035;48.358;2.122;2022-12-26T08:58:44;101076.84;;;10.35;86.31
75455;BME280;64035;48.358;2.122;2022-12-26T09:00:22;101083.75;;;10.36;86.60
75455;BME280;64035;48.358;2.122;2022-12-26T09:02:03;101078.72;;;10.37;86.62
75455;BME280;64035;48.358;2.122;2022-12-26T09:03:42;101081.28;;;10.37;86.57
75455;BME280;64035;48.358;2.122;2022-12-26T09:05:21;101087.34;;;10.39;86.89
75455;BME280;64035;48.358;2.122;2022-12-26T09:06:59;101086.56;;;10.40;86.78
75455;BME280;64035;48.358;2.122;2022-12-26T09:08:39;101089.31;;;10.43;87.02
75455;BME280;64035;48.358;2.122;2022-12-26T09:10:17;101086.91;;;10.46;87.18
75455;BME280;64035;48.358;2.122;2022-12-26T09:11:55;101081.09;;;10.49;86.96
75455;BME280;64035;48.358;2.122;2022-12-26T09:13:33;101081.25;;;10.52;86.69
75455;BME280;64035;48.358;2.122;2022-12-26T09:15:12;101081.34;;;10.53;86.77
75455;BME280;64035;48.358;2.122;2022-12-26T09:16:50;101089.91;;;10.54;87.31
75455;BME280;64035;48.358;2.122;2022-12-26T09:18:29;101083.22;;;10.56;87.30
75455;BME280;64035;48.358;2.122;2022-12-26T09:20:08;101090.22;;;10.59;86.92
75455;BME280;64035;48.358;2.122;2022-12-26T09:21:48;101103.97;;;10.61;87.13
75455;BME280;64035;48.358;2.122;2022-12-26T09:23:46;101101.59;;;10.64;86.89
75455;BME280;64035;48.358;2.122;2022-12-26T09:25:25;101100.88;;;10.66;86.96
75455;BME280;64035;48.358;2.122;2022-12-26T09:27:03;101105.19;;;10.67;87.25
75455;BME280;64035;48.358;2.122;2022-12-26T09:28:42;101105.19;;;10.67;87.45
75455;BME280;64035;48.358;2.122;2022-12-26T09:30:22;101106.19;;;10.69;87.64
75455;BME280;64035;48.358;2.122;2022-12-26T09:32:00;101102.03;;;10.71;87.36
75455;BME280;64035;48.358;2.122;2022-12-26T09:33:39;101108.94;;;10.72;87.34
75455;BME280;64035;48.358;2.122;2022-12-26T09:35:17;101112.38;;;10.73;87.36
75455;BME280;64035;48.358;2.122;2022-12-26T09:36:55;101111.66;;;10.75;87.28
75455;BME280;64035;48.358;2.122;2022-12-26T09:38:33;101108.31;;;10.76;87.49
75455;BME280;64035;48.358;2.122;2022-12-26T09:40:22;101116.97;;;10.78;87.34
75455;BME280;64035;48.358;2.122;2022-12-26T09:42:06;101117.06;;;10.80;87.49
75455;BME280;64035;48.358;2.122;2022-12-26T09:45:57;101110.31;;;10.82;87.44
75455;BME280;64035;48.358;2.122;2022-12-26T09:49:42;101119.19;;;10.87;87.26
75455;BME280;64035;48.358;2.122;2022-12-26T09:51:24;101124.31;;;10.87;87.51
75455;BME280;64035;48.358;2.122;2022-12-26T09:53:24;101126.91;;;10.88;87.29
75455;BME280;64035;48.358;2.122;2022-12-26T09:57:08;101128.69;;;10.89;87.76